Time;durP1;ratioP1;P1;durP2;ratioP2;P2;SDS_P1;SDS_P2;PMS_P1;PMS_P2;Temp;Humidity;BMP_temperature;BMP_pressure;BME280_temperature;BME280_humidity;BME280_pressure;Samples;Min_cycle;Max_cycle;Signal;HPM_P1;HPM_P2
2022/10/18 00:02:02;;;;;;;10.45;5.07;;;;;;;12.90;89.30;97228.16;5057577;28;20049;-78
2022/10/18 00:04:28;;;;;;;12.85;5.53;;;;;;;12.94;89.61;97227.19;5057269;28;20104;-76
2022/10/18 00:06:54;;;;;;;9.45;4.88;;;;;;;12.97;89.56;97229.31;5057488;28;20047;-76
2022/10/18 00:09:23;;;;;;;7.95;4.75;;;;;;;13.02;89.29;97228.41;5056706;28;20044;-77
2022/10/18 00:11:50;;;;;;;8.02;4.80;;;;;;;13.01;88.78;97232.25;5057352;28;20061;-77
2022/10/18 00:14:17;;;;;;;9.13;5.75;;;;;;;12.84;88.81;97226.66;5057663;28;20053;-76
2022/10/18 00:16:43;;;;;;;9.88;6.07;;;;;;;12.74;89.24;97225.00;5058145;28;20483;-77
2022/10/18 00:19:10;;;;;;;7.10;4.90;;;;;;;12.75;89.11;97221.94;5057835;28;20132;-76
2022/10/18 00:21:36;;;;;;;10.85;5.88;;;;;;;12.74;89.41;97223.06;5056198;28;20053;-76
2022/10/18 00:24:04;;;;;;;11.90;5.68;;;;;;;12.70;89.83;97219.34;5053943;28;20055;-77
2022/10/18 00:26:32;;;;;;;11.18;6.28;;;;;;;12.61;90.42;97226.66;5054196;28;20055;-77
2022/10/18 00:29:01;;;;;;;13.10;5.78;;;;;;;12.58;90.40;97227.28;5053509;28;20059;-76
2022/10/18 00:31:29;;;;;;;10.07;6.25;;;;;;;12.52;90.64;97223.03;5052920;28;20033;-76
2022/10/18 00:33:59;;;;;;;8.10;5.40;;;;;;;12.44;90.91;97229.25;5054719;28;20145;-77
2022/10/18 00:36:28;;;;;;;8.50;5.15;;;;;;;12.36;90.92;97224.50;5053713;28;20045;-76
2022/10/18 00:38:55;;;;;;;9.88;5.50;;;;;;;12.24;91.21;97223.13;5054962;28;20059;-77
2022/10/18 00:41:23;;;;;;;7.50;5.30;;;;;;;12.22;91.47;97221.84;5053037;28;20045;-76
2022/10/18 00:44:06;;;;;;;8.75;5.60;;;;;;;12.14;91.78;97217.88;5053660;28;20099;-77
2022/10/18 00:46:34;;;;;;;9.10;5.37;;;;;;;12.10;92.25;97211.44;5054034;28;20049;-77
2022/10/18 00:49:04;;;;;;;9.57;5.03;;;;;;;12.06;92.62;97210.44;5053616;28;20056;-77
2022/10/18 00:51:34;;;;;;;9.88;5.07;;;;;;;12.01;92.66;97208.63;5053626;28;20049;-77
2022/10/18 00:54:00;;;;;;;13.85;5.35;;;;;;;11.92;93.09;97204.19;5054057;28;20045;-76
2022/10/18 00:56:27;;;;;;;8.32;5.60;;;;;;;11.90;93.40;97209.13;5053993;28;20040;-76
2022/10/18 00:58:56;;;;;;;8.20;5.60;;;;;;;11.88;93.38;97203.19;5054342;28;20086;-76
2022/10/18 01:01:23;;;;;;;12.82;5.22;;;;;;;11.88;93.42;97208.63;5054066;28;20041;-76
2022/10/18 01:03:51;;;;;;;10.68;5.88;;;;;;;11.92;93.14;97215.09;5055070;28;20128;-76
2022/10/18 01:06:17;;;;;;;8.25;5.40;;;;;;;11.96;92.94;97211.47;5055075;28;20048;-76
2022/10/18 01:09:07;;;;;;;9.27;5.60;;;;;;;11.97;92.80;97212.28;5055046;28;20041;-76
2022/10/18 01:11:55;;;;;;;8.95;5.15;;;;;;;12.05;92.62;97202.53;5050833;28;20045;-76
2022/10/18 01:14:34;;;;;;;7.25;4.97;;;;;;;12.12;92.11;97203.75;5054114;28;20057;-76
2022/10/18 01:17:08;;;;;;;7.15;4.72;;;;;;;12.14;91.90;97212.44;5056128;28;20053;-76
2022/10/18 01:20:00;;;;;;;8.38;4.68;;;;;;;12.18;91.54;97210.72;5055535;28;20064;-76
2022/10/18 01:22:31;;;;;;;10.20;4.90;;;;;;;12.12;91.62;97214.66;5037243;28;20044;-76
2022/10/18 01:25:06;;;;;;;7.68;5.10;;;;;;;12.12;91.30;97203.75;5056251;28;20045;-75
2022/10/18 01:27:44;;;;;;;8.25;4.80;;;;;;;12.03;91.32;97197.41;5055940;28;20055;-76
2022/10/18 01:30:36;;;;;;;7.95;4.70;;;;;;;12.08;91.26;97201.94;5055571;28;20052;-76
2022/10/18 01:33:09;;;;;;;7.00;4.30;;;;;;;12.14;90.73;97201.50;5054472;28;20055;-76
2022/10/18 01:35:41;;;;;;;7.53;4.25;;;;;;;12.17;90.44;97198.19;5056480;28;20049;-76
2022/10/18 01:38:15;;;;;;;6.10;3.78;;;;;;;12.18;89.97;97199.78;5056851;28;20045;-75
2022/10/18 01:40:45;;;;;;;8.75;4.63;;;;;;;12.22;89.59;97203.53;5056273;28;20041;-76
2022/10/18 01:43:13;;;;;;;10.05;4.40;;;;;;;12.23;89.33;97202.41;5055969;28;20037;-76
2022/10/18 01:45:42;;;;;;;9.00;4.55;;;;;;;12.24;89.11;97209.47;5057654;28;20142;-76
2022/10/18 01:48:09;;;;;;;10.25;4.93;;;;;;;12.21;88.96;97207.34;5057241;28;20049;-76
2022/10/18 01:50:35;;;;;;;6.72;4.00;;;;;;;12.17;88.96;97206.38;5039720;28;20053;-76
2022/10/18 01:53:02;;;;;;;9.38;4.72;;;;;;;12.12;88.90;97208.41;5059058;28;20043;-75
2022/10/18 01:55:38;;;;;;;8.27;4.30;;;;;;;12.10;88.69;97200.50;5060575;28;20626;-76
2022/10/18 01:58:16;;;;;;;6.72;4.32;;;;;;;12.06;88.52;97202.25;5060060;28;20037;-76
2022/10/18 02:00:48;;;;;;;6.30;4.40;;;;;;;12.08;88.51;97210.13;5059917;28;20590;-76
2022/10/18 02:03:21;;;;;;;13.07;4.35;;;;;;;12.00;88.61;97200.72;5057800;28;20127;-77
2022/10/18 02:05:54;;;;;;;8.43;4.25;;;;;;;12.05;88.35;97197.88;5059848;28;20059;-78
2022/10/18 02:08:28;;;;;;;8.48;4.47;;;;;;;12.03;88.24;97205.59;5058692;28;20040;-77
2022/10/18 02:10:58;;;;;;;8.25;4.32;;;;;;;12.12;88.23;97208.41;5059252;28;20047;-76
2022/10/18 02:13:31;;;;;;;7.90;3.78;;;;;;;12.15;88.12;97203.13;5057138;28;20045;-77
2022/10/18 02:16:04;;;;;;;7.72;4.05;;;;;;;12.20;88.17;97200.28;5040986;28;20064;-76
2022/10/18 02:18:34;;;;;;;;;;;;;;;12.23;88.36;97210.59;5058935;28;20057;-77
2022/10/18 02:21:03;;;;;;;8.40;4.13;;;;;;;12.22;86.98;97208.19;5058770;28;19920;-76
2022/10/18 02:23:31;;;;;;;7.13;3.70;;;;;;;12.17;86.61;97206.38;5039694;28;20048;-76
2022/10/18 02:25:58;;;;;;;6.53;3.75;;;;;;;12.11;86.58;97209.50;5057763;28;20045;-77
2022/10/18 02:28:25;;;;;;;6.25;4.10;;;;;;;12.07;86.71;97206.59;5056979;28;20040;-77
2022/10/18 02:30:57;;;;;;;6.50;4.10;;;;;;;12.07;86.83;97209.31;5057723;28;20045;-75
2022/10/18 02:33:33;;;;;;;7.45;3.95;;;;;;;12.04;86.58;97215.38;5056858;28;20410;-76
2022/10/18 02:36:06;;;;;;;8.25;4.60;;;;;;;12.01;86.14;97216.00;5057516;28;20041;-75
2022/10/18 02:38:33;;;;;;;6.25;4.18;;;;;;;11.83;85.52;97219.66;5056775;28;20076;-76
2022/10/18 02:41:00;;;;;;;4.53;3.38;;;;;;;11.72;86.09;97222.56;5057032;28;20051;-76
2022/10/18 02:43:26;;;;;;;10.35;3.95;;;;;;;11.68;86.12;97226.19;5055793;28;20045;-76
2022/10/18 02:45:53;;;;;;;13.07;4.15;;;;;;;11.67;86.40;97221.88;5039638;28;20072;-76
2022/10/18 02:48:20;;;;;;;9.25;4.47;;;;;;;11.66;86.87;97221.06;5056576;28;20531;-75
2022/10/18 02:50:48;;;;;;;7.88;4.68;;;;;;;11.60;87.52;97219.53;5038375;28;20045;-76
2022/10/18 02:53:14;;;;;;;10.00;4.80;;;;;;;11.46;87.85;97211.34;5055802;28;20115;-77
2022/10/18 02:55:41;;;;;;;10.10;4.55;;;;;;;11.48;87.92;97217.34;5057410;28;20454;-77
2022/10/18 02:58:08;;;;;;;5.32;3.70;;;;;;;11.49;87.80;97218.94;5055852;28;20045;-76
2022/10/18 03:00:35;;;;;;;6.10;4.20;;;;;;;11.53;88.23;97219.13;5056360;28;20049;-75
2022/10/18 03:03:01;;;;;;;9.38;4.57;;;;;;;11.49;88.45;97209.94;5055507;28;20525;-77
2022/10/18 03:05:28;;;;;;;6.95;4.50;;;;;;;11.42;88.69;97209.53;5056612;28;20055;-76
2022/10/18 03:07:58;;;;;;;10.23;5.20;;;;;;;11.39;89.04;97212.88;5055547;28;20529;-77
2022/10/18 03:10:24;;;;;;;7.60;4.20;;;;;;;11.45;88.81;97211.66;5055645;28;20045;-76
2022/10/18 03:12:51;;;;;;;6.32;4.43;;;;;;;11.42;89.06;97207.59;5055677;28;20048;-75
2022/10/18 03:15:17;;;;;;;6.72;4.20;;;;;;;11.48;88.95;97205.59;5055501;28;20075;-76
2022/10/18 03:17:44;;;;;;;9.82;4.20;;;;;;;11.52;88.14;97206.59;5055532;28;20040;-76
2022/10/18 03:20:11;;;;;;;9.75;4.20;;;;;;;11.53;87.82;97207.41;5055644;28;20141;-76
2022/10/18 03:22:38;;;;;;;9.57;4.63;;;;;;;11.47;88.21;97214.88;5055606;28;20129;-77
2022/10/18 03:25:06;;;;;;;9.10;4.53;;;;;;;11.35;88.45;97214.59;5055821;28;20132;-77
2022/10/18 03:27:33;;;;;;;8.52;4.25;;;;;;;11.31;88.53;97210.84;5055756;28;20049;-76
2022/10/18 03:29:59;;;;;;;6.38;4.10;;;;;;;11.34;88.61;97215.69;5054067;28;20417;-76
2022/10/18 03:32:26;;;;;;;8.38;4.30;;;;;;;11.40;88.77;97222.66;5055157;28;20128;-77
2022/10/18 03:34:52;;;;;;;6.43;4.30;;;;;;;11.37;87.90;97221.34;5055873;28;20059;-77
2022/10/18 03:37:19;;;;;;;9.52;4.57;;;;;;;11.27;88.25;97216.06;5056007;28;20047;-76
2022/10/18 03:39:45;;;;;;;8.70;4.05;;;;;;;11.18;88.78;97213.25;5055676;28;20051;-76
2022/10/18 03:42:13;;;;;;;11.02;4.80;;;;;;;11.19;89.19;97220.31;5054665;28;20047;-76
2022/10/18 03:44:40;;;;;;;8.02;4.40;;;;;;;11.19;89.28;97217.59;5056022;28;20069;-76
2022/10/18 03:47:06;;;;;;;8.93;4.70;;;;;;;11.20;89.33;97216.47;5057911;28;20055;-76
2022/10/18 03:49:33;;;;;;;6.63;4.28;;;;;;;11.16;89.35;97226.34;5059384;28;20277;-77
2022/10/18 03:52:00;;;;;;;8.23;4.13;;;;;;;11.16;89.26;97231.81;5058565;28;20500;-76
2022/10/18 03:54:26;;;;;;;7.53;4.13;;;;;;;11.23;88.73;97232.25;5057665;28;20393;-77
2022/10/18 03:56:53;;;;;;;8.35;3.90;;;;;;;11.29;88.78;97224.78;5057254;28;20135;-76
2022/10/18 03:59:21;;;;;;;6.90;4.47;;;;;;;11.29;88.82;97230.22;5057167;28;20053;-76
2022/10/18 04:01:48;;;;;;;6.38;3.95;;;;;;;11.22;88.67;97224.34;5056894;28;20045;-76
2022/10/18 04:04:14;;;;;;;5.50;3.90;;;;;;;11.22;88.77;97230.63;5056312;28;20045;-76
2022/10/18 04:06:42;;;;;;;8.70;3.92;;;;;;;11.23;88.75;97232.25;5056949;28;20045;-75
2022/10/18 04:09:09;;;;;;;10.70;4.28;;;;;;;11.23;88.59;97232.25;5056587;28;20055;-76
2022/10/18 04:11:35;;;;;;;5.65;3.72;;;;;;;11.18;88.62;97229.59;5055626;28;20446;-76
2022/10/18 04:14:02;;;;;;;6.28;4.22;;;;;;;11.13;88.39;97226.97;5055072;28;20049;-77
2022/10/18 04:16:30;;;;;;;6.90;4.43;;;;;;;10.97;88.60;97225.63;5056767;28;20071;-77
2022/10/18 04:18:57;;;;;;;7.50;3.92;;;;;;;11.03;88.52;97227.16;5056564;28;20041;-76
2022/10/18 04:21:24;;;;;;;8.88;4.18;;;;;;;10.99;88.64;97220.69;5038102;28;20120;-75
2022/10/18 04:23:51;;;;;;;9.57;3.55;;;;;;;10.97;88.54;97228.34;5056104;28;20052;-76
2022/10/18 04:26:17;;;;;;;7.35;3.95;;;;;;;11.05;88.44;97230.38;5057883;28;20041;-76
2022/10/18 04:28:44;;;;;;;9.02;4.28;;;;;;;11.15;88.30;97235.66;5058474;28;20049;-76
2022/10/18 04:31:11;;;;;;;6.85;3.90;;;;;;;11.08;87.56;97246.16;5038286;28;20041;-76
2022/10/18 04:33:39;;;;;;;7.15;4.20;;;;;;;11.08;88.21;97235.25;5036459;28;20397;-77
2022/10/18 04:36:06;;;;;;;8.10;3.45;;;;;;;11.12;88.28;97230.81;5035107;28;20064;-76
2022/10/18 04:38:33;;;;;;;10.88;4.13;;;;;;;11.15;88.14;97241.09;5035272;28;20045;-76
2022/10/18 04:41:00;;;;;;;7.10;3.90;;;;;;;11.12;87.71;97252.63;5039453;28;20502;-76
2022/10/18 04:43:26;;;;;;;6.68;3.70;;;;;;;11.01;87.23;97253.06;5051996;28;20049;-76
2022/10/18 04:45:53;;;;;;;11.82;4.57;;;;;;;11.00;87.23;97260.44;5052058;28;20572;-76
2022/10/18 04:48:20;;;;;;;7.13;5.05;;;;;;;11.02;87.58;97252.00;5053809;28;20048;-76
2022/10/18 04:50:49;;;;;;;7.53;5.05;;;;;;;11.05;88.22;97251.38;5054500;28;20067;-76
2022/10/18 04:53:17;;;;;;;7.05;4.10;;;;;;;11.08;88.65;97246.16;5054132;28;20056;-76
2022/10/18 04:55:45;;;;;;;7.72;3.83;;;;;;;11.03;88.59;97246.22;5054023;28;20055;-77
2022/10/18 04:58:11;;;;;;;8.93;4.57;;;;;;;10.95;87.91;97246.91;5053086;28;20495;-76
2022/10/18 05:00:40;;;;;;;7.57;4.13;;;;;;;10.77;88.01;97237.69;5054658;28;20048;-77
2022/10/18 05:03:07;;;;;;;11.18;4.80;;;;;;;10.65;88.47;97229.97;5053844;28;20049;-79
2022/10/18 05:05:34;;;;;;;7.82;4.03;;;;;;;10.61;89.12;97219.97;5054197;28;20059;-77
2022/10/18 05:08:02;;;;;;;7.70;3.80;;;;;;;10.67;88.51;97216.03;5054167;28;20708;-76
2022/10/18 05:10:28;;;;;;;7.70;4.20;;;;;;;10.64;88.94;97217.44;5054977;28;20036;-78
2022/10/18 05:12:55;;;;;;;6.55;4.03;;;;;;;10.78;88.28;97225.66;5053596;28;20504;-76
2022/10/18 05:15:22;;;;;;;6.82;3.47;;;;;;;10.91;88.30;97243.16;5054170;28;20500;-75
2022/10/18 05:17:48;;;;;;;8.95;3.90;;;;;;;10.86;87.66;97238.63;5054367;28;20048;-75
2022/10/18 05:20:15;;;;;;;6.57;3.80;;;;;;;10.89;87.46;97232.56;5052644;28;20113;-77
2022/10/18 05:22:42;;;;;;;7.65;3.80;;;;;;;10.69;87.87;97216.53;5051717;28;20056;-76
2022/10/18 05:25:10;;;;;;;7.07;3.97;;;;;;;10.56;88.73;97207.22;5051277;28;20056;-75
2022/10/18 05:27:37;;;;;;;6.35;3.67;;;;;;;10.63;88.56;97213.09;5055946;28;20048;-76
2022/10/18 05:30:04;;;;;;;10.65;3.90;;;;;;;10.61;88.51;97215.31;5056045;28;20052;-75
2022/10/18 05:32:31;;;;;;;6.85;3.25;;;;;;;10.52;88.13;97199.94;5056982;28;20044;-76
2022/10/18 05:34:57;;;;;;;5.15;3.60;;;;;;;10.44;88.76;97194.09;5055225;28;20045;-75
2022/10/18 05:37:24;;;;;;;7.55;3.63;;;;;;;10.55;88.51;97200.19;5035857;28;20049;-74
2022/10/18 05:39:51;;;;;;;6.10;3.90;;;;;;;10.61;88.24;97200.91;5053980;28;20047;-76
2022/10/18 05:42:18;;;;;;;7.20;3.90;;;;;;;10.67;88.05;97205.16;5053122;28;20048;-75
2022/10/18 05:44:45;;;;;;;4.78;3.47;;;;;;;10.80;87.46;97214.47;5054319;28;20060;-77
2022/10/18 05:47:12;;;;;;;9.88;3.78;;;;;;;10.93;87.83;97228.13;5056513;28;20083;-76
2022/10/18 05:49:38;;;;;;;10.50;3.58;;;;;;;10.99;87.04;97228.84;5056753;28;20055;-77
2022/10/18 05:52:05;;;;;;;5.35;3.42;;;;;;;10.88;86.46;97230.94;5056514;28;20158;-76
2022/10/18 05:54:32;;;;;;;5.85;3.17;;;;;;;10.99;86.07;97237.03;5056880;28;20053;-75
2022/10/18 05:56:58;;;;;;;7.45;3.20;;;;;;;11.00;86.05;97227.75;5058759;28;20424;-76
2022/10/18 05:59:26;;;;;;;10.43;3.40;;;;;;;10.89;85.86;97227.09;5059077;28;20041;-77
2022/10/18 06:01:53;;;;;;;6.35;3.58;;;;;;;11.02;85.73;97224.75;5058250;28;20123;-76
2022/10/18 06:04:19;;;;;;;12.30;3.83;;;;;;;11.06;86.00;97223.00;5058557;28;20047;-75
2022/10/18 06:06:46;;;;;;;8.88;3.45;;;;;;;11.05;86.19;97224.94;5059074;28;20045;-77
2022/10/18 06:09:12;;;;;;;5.55;3.10;;;;;;;11.19;85.53;97225.78;5058597;28;20108;-77
2022/10/18 06:11:39;;;;;;;6.45;3.28;;;;;;;11.29;85.24;97229.44;5057326;28;20139;-76
2022/10/18 06:14:08;;;;;;;7.80;4.00;;;;;;;11.34;85.78;97226.59;5057891;28;20203;-76
2022/10/18 06:16:35;;;;;;;9.18;3.60;;;;;;;11.35;85.83;97228.22;5058619;28;20051;-75
2022/10/18 06:19:02;;;;;;;6.00;3.45;;;;;;;11.45;85.67;97234.28;5058568;28;20049;-77
2022/10/18 06:21:28;;;;;;;4.75;3.30;;;;;;;11.57;85.61;97238.44;5060939;28;20043;-75
2022/10/18 06:23:57;;;;;;;13.73;4.28;;;;;;;11.59;85.16;97250.66;5063080;28;20069;-76
2022/10/18 06:26:25;;;;;;;11.82;4.15;;;;;;;11.55;83.85;97255.09;5060565;28;20190;-75
2022/10/18 06:28:51;;;;;;;9.05;4.38;;;;;;;11.52;83.50;97255.69;5061399;28;20047;-76
2022/10/18 06:31:20;;;;;;;9.23;4.13;;;;;;;11.39;83.55;97243.69;5058991;28;20053;-76
2022/10/18 06:33:48;;;;;;;7.22;3.90;;;;;;;11.46;83.25;97240.53;5058886;28;20063;-75
2022/10/18 06:36:16;;;;;;;10.77;3.88;;;;;;;11.59;83.24;97245.22;5057627;28;20376;-75
2022/10/18 06:38:43;;;;;;;6.82;3.60;;;;;;;11.80;82.69;97247.50;5057480;28;20045;-76
2022/10/18 06:41:10;;;;;;;7.03;3.17;;;;;;;11.92;82.66;97243.22;5057716;28;20140;-76
2022/10/18 06:43:36;;;;;;;5.88;3.13;;;;;;;12.02;82.16;97255.84;5058186;28;20568;-75
2022/10/18 06:46:06;;;;;;;7.20;3.42;;;;;;;12.07;81.30;97249.47;5056649;28;20079;-75
2022/10/18 06:48:33;;;;;;;5.45;3.00;;;;;;;12.16;81.37;97248.44;5056782;28;20048;-76
2022/10/18 06:51:03;;;;;;;4.97;3.10;;;;;;;12.36;81.75;97249.91;5057541;28;20061;-75
2022/10/18 06:53:31;;;;;;;10.63;3.45;;;;;;;12.35;80.80;97258.41;5057586;28;20056;-75
2022/10/18 06:55:59;;;;;;;9.75;3.38;;;;;;;12.16;81.36;97267.56;5058239;28;20049;-76
2022/10/18 06:58:26;;;;;;;5.13;2.80;;;;;;;12.38;80.89;97266.00;5056939;28;20047;-76
2022/10/18 07:00:52;;;;;;;5.50;3.08;;;;;;;12.58;82.09;97264.72;5057302;28;20419;-75
2022/10/18 07:03:20;;;;;;;6.00;3.00;;;;;;;12.73;82.52;97258.88;5056140;28;20057;-76
2022/10/18 07:05:47;;;;;;;8.70;3.47;;;;;;;12.70;81.17;97257.59;5057038;28;20099;-76
2022/10/18 07:08:15;;;;;;;8.07;3.25;;;;;;;12.82;81.44;97262.50;5056536;28;20055;-76
2022/10/18 07:10:41;;;;;;;6.10;3.50;;;;;;;12.90;81.09;97263.69;5057499;28;20056;-76
2022/10/18 07:13:08;;;;;;;9.27;2.80;;;;;;;12.92;80.89;97264.19;5056864;28;20048;-77
2022/10/18 07:15:37;;;;;;;7.55;3.13;;;;;;;13.03;80.86;97279.22;5057822;28;20047;-76
2022/10/18 07:18:04;;;;;;;7.32;3.50;;;;;;;13.06;80.61;97281.34;5056225;28;20044;-75
2022/10/18 07:20:30;;;;;;;9.60;3.38;;;;;;;13.08;81.08;97268.16;5056577;28;20044;-75
2022/10/18 07:22:57;;;;;;;11.95;3.78;;;;;;;13.07;81.81;97256.41;5057572;28;20089;-75
2022/10/18 07:25:25;;;;;;;4.95;2.88;;;;;;;13.14;82.23;97258.69;5057829;28;20055;-76
2022/10/18 07:27:51;;;;;;;6.55;2.97;;;;;;;13.26;82.22;97258.97;5058714;28;20128;-76
2022/10/18 07:30:18;;;;;;;6.15;3.25;;;;;;;13.32;81.89;97268.66;5055745;28;20135;-76
2022/10/18 07:32:44;;;;;;;10.18;3.70;;;;;;;13.27;81.13;97285.22;5055572;28;20053;-75
2022/10/18 07:35:11;;;;;;;12.68;3.35;;;;;;;12.94;81.40;97284.59;5036685;28;20057;-75
2022/10/18 07:37:37;;;;;;;7.90;3.30;;;;;;;13.04;82.07;97289.03;5055834;28;20135;-75
2022/10/18 07:40:05;;;;;;;8.15;3.30;;;;;;;13.07;82.54;97285.69;5054902;28;20041;-76
2022/10/18 07:42:35;;;;;;;11.40;3.85;;;;;;;13.01;82.55;97292.41;5053259;28;20061;-74
2022/10/18 07:45:01;;;;;;;6.57;3.85;;;;;;;12.72;83.83;97292.81;5054788;28;20041;-75
2022/10/18 07:47:28;;;;;;;7.93;3.85;;;;;;;12.75;83.55;97282.06;5052458;28;20037;-75
2022/10/18 07:49:54;;;;;;;6.60;3.53;;;;;;;12.96;82.77;97282.41;5054074;28;20057;-75
2022/10/18 07:52:21;;;;;;;4.40;2.80;;;;;;;13.04;81.41;97294.50;5055119;28;20041;-76
2022/10/18 07:54:47;;;;;;;9.95;3.55;;;;;;;13.05;81.30;97290.66;5055860;28;20045;-76
2022/10/18 07:57:14;;;;;;;11.43;3.65;;;;;;;13.06;81.15;97287.63;5055647;28;20041;-75
2022/10/18 07:59:45;;;;;;;8.52;3.80;;;;;;;13.10;82.16;97287.78;5055497;28;20045;-75
2022/10/18 08:02:11;;;;;;;6.90;3.10;;;;;;;13.26;81.16;97280.88;5054757;28;20079;-76
2022/10/18 08:04:38;;;;;;;9.15;3.63;;;;;;;13.41;80.98;97292.50;5055713;28;20511;-75
2022/10/18 08:07:05;;;;;;;8.15;3.70;;;;;;;13.36;80.19;97289.91;5054425;28;20045;-76
2022/10/18 08:09:34;;;;;;;6.35;3.47;;;;;;;13.37;79.88;97280.59;5055136;28;20071;-75
2022/10/18 08:12:00;;;;;;;10.82;3.88;;;;;;;13.48;80.05;97287.41;5054218;28;20510;-75
2022/10/18 08:14:27;;;;;;;6.47;3.60;;;;;;;13.40;80.37;97283.50;5055206;28;20116;-75
2022/10/18 08:16:55;;;;;;;5.82;3.85;;;;;;;13.37;81.27;97280.59;5054479;28;20051;-75
2022/10/18 08:19:22;;;;;;;8.25;3.75;;;;;;;13.61;80.90;97270.09;5054349;28;20482;-76
2022/10/18 08:21:49;;;;;;;5.90;2.92;;;;;;;13.84;79.98;97279.84;5054527;28;20151;-75
2022/10/18 08:24:15;;;;;;;6.25;3.90;;;;;;;14.03;80.06;97273.31;5054225;28;20045;-75
2022/10/18 08:26:42;;;;;;;8.02;3.47;;;;;;;13.90;78.81;97283.25;5056343;28;20041;-75
2022/10/18 08:29:09;;;;;;;10.32;3.78;;;;;;;13.97;79.50;97278.13;5053617;28;20055;-75
2022/10/18 08:31:35;;;;;;;14.80;3.85;;;;;;;14.00;78.97;97284.91;5055214;28;20068;-76
2022/10/18 08:34:03;;;;;;;9.13;3.78;;;;;;;14.23;79.37;97280.94;5055376;28;20135;-77
2022/10/18 08:36:30;;;;;;;6.80;3.72;;;;;;;14.39;78.72;97283.22;5054659;28;20051;-75
2022/10/18 08:38:56;;;;;;;9.90;3.50;;;;;;;14.40;78.11;97284.81;5053619;28;20075;-75
2022/10/18 08:42:01;;;;;;;7.03;3.42;;;;;;;14.62;78.57;97284.75;5052937;28;20041;-74
2022/10/18 08:44:31;;;;;;;6.43;3.75;;;;;;;14.69;78.44;97295.22;5047541;28;20586;-75
2022/10/18 08:47:03;;;;;;;12.73;4.50;;;;;;;14.89;78.91;97302.81;5054239;28;20049;-76
2022/10/18 08:49:37;;;;;;;11.25;4.22;;;;;;;14.94;76.57;97310.88;5052986;28;20037;-75
2022/10/18 08:52:10;;;;;;;7.95;3.85;;;;;;;14.99;76.25;97305.25;5053677;28;20132;-77
2022/10/18 08:54:43;;;;;;;5.80;3.80;;;;;;;15.04;75.55;97288.63;5054938;28;20052;-75
2022/10/18 08:57:14;;;;;;;8.52;4.32;;;;;;;15.30;75.44;97279.56;5053486;28;20492;-73
2022/10/18 08:59:42;;;;;;;12.60;4.35;;;;;;;15.50;75.86;97278.03;5054554;28;20049;-76
2022/10/18 09:02:20;;;;;;;7.30;4.10;;;;;;;15.62;74.78;97275.44;5057359;28;20049;-75
2022/10/18 09:04:54;;;;;;;6.82;3.83;;;;;;;15.86;74.03;97270.16;5057873;28;20052;-75
2022/10/18 09:07:54;;;;;;;6.53;4.22;;;;;;;15.98;72.85;97260.44;5058480;28;20051;-77
2022/10/18 09:10:30;;;;;;;6.72;4.10;;;;;;;16.16;71.71;97261.97;5037575;28;20051;-77
2022/10/18 09:13:11;;;;;;;8.18;4.20;;;;;;;16.23;72.04;97256.72;5058124;28;20440;-76
2022/10/18 09:15:45;;;;;;;9.18;4.10;;;;;;;16.47;71.25;97266.28;5025147;28;20041;-77
2022/10/18 09:18:36;;;;;;;8.30;4.18;;;;;;;16.60;70.72;97268.81;5057017;28;20454;-76
2022/10/18 09:21:15;;;;;;;6.85;4.13;;;;;;;16.80;70.92;97266.41;5045316;28;20068;-76
2022/10/18 09:23:47;;;;;;;10.02;4.60;;;;;;;16.83;70.53;97274.78;5059046;28;20573;-77
2022/10/18 09:26:17;;;;;;;11.05;4.60;;;;;;;16.97;69.94;97281.97;5058253;28;20559;-77
2022/10/18 09:28:58;;;;;;;8.20;5.05;;;;;;;16.95;69.41;97269.34;5057111;28;20048;-76
2022/10/18 09:31:33;;;;;;;8.60;4.25;;;;;;;17.27;69.30;97266.94;5041953;28;20127;-77
2022/10/18 09:34:05;;;;;;;7.97;4.07;;;;;;;17.63;69.73;97276.44;5059515;28;20416;-77
2022/10/18 09:36:36;;;;;;;8.68;4.10;;;;;;;17.91;69.22;97274.69;5057141;28;20055;-77
2022/10/18 09:39:09;;;;;;;7.55;4.40;;;;;;;17.89;65.87;97274.22;5056838;28;20052;-78
2022/10/18 09:41:40;;;;;;;9.77;4.32;;;;;;;17.93;65.71;97266.88;5056399;28;20059;-77
2022/10/18 09:44:15;;;;;;;8.25;4.32;;;;;;;17.88;67.65;97282.84;5058305;28;20427;-76
2022/10/18 09:46:47;;;;;;;9.98;4.80;;;;;;;17.73;68.23;97279.59;5057465;28;20048;-75
2022/10/18 09:49:18;;;;;;;11.37;4.20;;;;;;;17.81;69.38;97277.09;5056941;28;20060;-76
2022/10/18 09:51:49;;;;;;;8.70;4.28;;;;;;;17.94;69.47;97270.44;5056914;28;20512;-77
2022/10/18 09:54:23;;;;;;;7.72;4.10;;;;;;;18.00;69.22;97264.34;5055441;28;20053;-75
2022/10/18 09:56:52;;;;;;;7.38;4.07;;;;;;;18.16;70.07;97269.16;5056048;28;20045;-74
2022/10/18 09:59:33;;;;;;;9.80;4.78;;;;;;;18.37;68.51;97264.34;5055382;28;20052;-75
2022/10/18 10:02:00;;;;;;;10.05;4.75;;;;;;;18.41;68.32;97270.78;5055501;28;20056;-75
2022/10/18 10:04:27;;;;;;;9.20;4.78;;;;;;;18.63;67.62;97263.16;5055245;28;20041;-74
2022/10/18 10:06:56;;;;;;;8.75;5.28;;;;;;;18.70;66.16;97269.72;5056481;28;20052;-74
2022/10/18 10:09:28;;;;;;;8.55;4.43;;;;;;;18.92;65.78;97271.16;5054389;28;20045;-74
2022/10/18 10:11:55;;;;;;;10.63;4.82;;;;;;;18.77;66.47;97274.66;5054741;28;20051;-74
2022/10/18 10:14:25;;;;;;;7.38;4.55;;;;;;;18.83;65.80;97272.44;5055473;28;20107;-75
2022/10/18 10:16:53;;;;;;;11.32;4.20;;;;;;;18.99;66.73;97268.59;5060111;28;20052;-77
2022/10/18 10:19:24;;;;;;;11.95;4.80;;;;;;;19.14;66.71;97269.81;5059500;28;20073;-76
2022/10/18 10:21:54;;;;;;;8.55;4.80;;;;;;;19.16;66.03;97269.44;5060403;28;20049;-76
2022/10/18 10:24:26;;;;;;;12.63;4.75;;;;;;;19.20;65.30;97270.34;5059269;28;20583;-77
2022/10/18 10:27:00;;;;;;;10.05;5.03;;;;;;;19.20;66.00;97262.06;5059160;28;20044;-77
2022/10/18 10:29:56;;;;;;;10.27;5.13;;;;;;;19.13;65.65;97264.63;5057570;28;20056;-77
2022/10/18 10:32:25;;;;;;;8.82;4.57;;;;;;;19.16;66.37;97261.16;5017448;28;20056;-76
2022/10/18 10:34:52;;;;;;;11.02;4.45;;;;;;;19.07;66.89;97252.25;5017853;28;20046;-77
2022/10/18 10:37:25;;;;;;;9.15;4.78;;;;;;;18.98;65.65;97244.91;5016903;28;20050;-75
2022/10/18 10:40:12;;;;;;;13.05;5.07;;;;;;;19.08;66.57;97251.88;5016596;28;20049;-76
2022/10/18 10:42:54;;;;;;;13.15;5.38;;;;;;;19.23;66.27;97240.09;5015617;28;20042;-74
2022/10/18 10:45:22;;;;;;;7.07;4.22;;;;;;;19.28;65.65;97239.03;5017386;28;20046;-75
2022/10/18 10:47:49;;;;;;;9.38;4.80;;;;;;;19.27;65.44;97231.91;5017713;28;20048;-74
2022/10/18 10:50:24;;;;;;;13.90;4.70;;;;;;;19.39;65.73;97226.31;5016497;28;20054;-75
2022/10/18 10:52:52;;;;;;;6.50;4.22;;;;;;;19.41;65.24;97224.00;5017073;28;20057;-74
2022/10/18 10:55:26;;;;;;;8.95;4.22;;;;;;;19.36;64.14;97221.47;5016488;28;20053;-74
2022/10/18 10:57:55;;;;;;;7.30;4.60;;;;;;;19.54;65.16;97222.78;5016754;28;20053;-76
2022/10/18 11:00:40;;;;;;;8.73;4.63;;;;;;;19.71;65.09;97231.91;5017249;28;22843;-77
2022/10/18 11:03:12;;;;;;;8.38;4.18;;;;;;;19.82;64.30;97219.16;5017130;28;20121;-75
2022/10/18 11:05:45;;;;;;;7.10;4.53;;;;;;;19.77;65.37;97213.88;5017800;28;20136;-74
2022/10/18 11:08:15;;;;;;;7.35;4.00;;;;;;;19.93;64.77;97213.88;5015972;28;20049;-75
2022/10/18 11:10:54;;;;;;;7.82;4.45;;;;;;;20.15;65.82;97209.66;5016825;28;20053;-74
2022/10/18 11:13:29;;;;;;;8.15;4.28;;;;;;;20.40;61.34;97207.47;5014517;28;20058;-75
2022/10/18 11:16:03;;;;;;;10.63;3.45;;;;;;;20.60;61.00;97200.81;5017767;28;20623;-74
2022/10/18 11:18:34;;;;;;;7.53;4.03;;;;;;;20.75;60.92;97205.50;5018175;28;20037;-74
2022/10/18 11:21:06;;;;;;;7.72;4.03;;;;;;;20.69;60.22;97214.47;5016991;28;20053;-74
2022/10/18 11:23:35;;;;;;;7.97;4.22;;;;;;;20.83;62.11;97203.69;5018271;28;20069;-74
2022/10/18 11:26:25;;;;;;;8.68;3.58;;;;;;;20.89;59.31;97202.22;5017739;28;20046;-77
2022/10/18 11:29:23;;;;;;;7.75;3.65;;;;;;;21.04;58.13;97201.34;5017153;28;20049;-76
2022/10/18 11:31:58;;;;;;;8.25;3.55;;;;;;;21.11;58.38;97197.91;5055021;28;20415;-74
2022/10/18 11:34:42;;;;;;;6.05;3.40;;;;;;;21.09;57.46;97195.50;5055491;28;20045;-75
2022/10/18 11:37:21;;;;;;;4.72;3.50;;;;;;;21.21;58.56;97196.50;5054827;28;20049;-75
2022/10/18 11:39:58;;;;;;;6.88;3.25;;;;;;;21.32;58.37;97192.00;5056402;28;20041;-75
2022/10/18 11:42:33;;;;;;;10.95;3.50;;;;;;;21.39;57.56;97192.13;5055258;28;20044;-74
2022/10/18 11:45:11;;;;;;;6.50;3.28;;;;;;;21.63;58.83;97191.78;5055248;28;20041;-75